Terminal Aerodrome Forecast
Issued by NWS

Home | Current Version | Previous Version | Text Only | Print | Product List | Glossary On
Versions: 1 2 3 4 5 6 7 8 9 10 11 12 13 14 15 16 17 18 19 20
000
FTPA31 PHFO 042001 AAA
TAFHLI
TAF AMD
PHLI 042001Z 0420/0518 25007KT P6SM VCSH SCT025 BKN050 OVC150
      TEMPO 0420/0422 3SM TSRA BKN020CB
     FM042200 20009KT P6SM VCSH SCT020 BKN050 BKN150
     FM050600 28007KT P6SM SCT020 SCT050=

USA.gov is the U.S. government's official web portal to all federal, state and local government web resources and services.